Time;durP1;ratioP1;P1;durP2;ratioP2;P2;SDS_P1;SDS_P2;PMS_P1;PMS_P2;Temp;Humidity;BMP_temperature;BMP_pressure;BME280_temperature;BME280_humidity;BME280_pressure;Samples;Min_cycle;Max_cycle;Signal;HPM_P1;HPM_P2
2022/12/03 00:00:44;;;;;;;38.55;11.25;;;2.90;99.90;;;;;;5136816;27;20087;-77
2022/12/03 00:03:10;;;;;;;43.25;12.05;;;2.90;99.90;;;;;;5137252;27;20431;-77
2022/12/03 00:05:35;;;;;;;38.53;12.95;;;2.90;99.90;;;;;;5136802;27;20046;-74
2022/12/03 00:08:01;;;;;;;42.33;12.90;;;2.90;99.90;;;;;;5101189;27;20372;-75
2022/12/03 00:10:27;;;;;;;38.08;12.32;;;2.90;99.90;;;;;;5136432;27;20123;-75
2022/12/03 00:12:53;;;;;;;36.85;11.43;;;2.90;99.90;;;;;;5136650;27;20138;-79
2022/12/03 00:15:18;;;;;;;41.63;13.32;;;2.90;99.90;;;;;;5118150;27;20051;-79
2022/12/03 00:17:44;;;;;;;42.85;13.60;;;2.90;99.90;;;;;;5118299;27;20046;-78
2022/12/03 00:20:17;;;;;;;35.65;10.95;;;2.90;99.90;;;;;;5118441;27;20074;-76
2022/12/03 00:22:43;;;;;;;44.35;16.55;;;2.90;99.90;;;;;;5136491;27;20047;-75
2022/12/03 00:25:08;;;;;;;41.63;12.45;;;2.90;99.90;;;;;;5117800;27;20138;-76
2022/12/03 00:27:34;;;;;;;42.80;12.82;;;2.80;99.90;;;;;;5136321;27;20084;-75
2022/12/03 00:30:00;;;;;;;46.10;14.10;;;2.90;99.90;;;;;;5102089;27;20158;-77
2022/12/03 00:32:25;;;;;;;46.10;16.08;;;2.80;99.90;;;;;;5117853;27;20047;-75
2022/12/03 00:34:51;;;;;;;37.88;12.05;;;2.80;99.90;;;;;;5118177;27;20123;-75
2022/12/03 00:37:17;;;;;;;47.30;15.98;;;2.80;99.90;;;;;;5100874;27;20050;-75
2022/12/03 00:39:42;;;;;;;46.92;13.27;;;2.80;99.90;;;;;;5136165;27;20095;-75
2022/12/03 00:42:08;;;;;;;41.45;12.43;;;2.80;99.90;;;;;;5136109;27;20344;-75
2022/12/03 00:44:34;;;;;;;45.78;12.88;;;2.80;99.90;;;;;;5117685;27;20046;-77
2022/12/03 00:47:00;;;;;;;46.53;13.95;;;2.80;99.90;;;;;;5136084;27;20054;-75
2022/12/03 00:49:25;;;;;;;48.50;15.75;;;2.80;99.90;;;;;;5117481;27;20387;-78
2022/12/03 00:51:51;;;;;;;53.97;16.02;;;2.80;99.90;;;;;;5117655;27;20035;-77
2022/12/03 00:54:17;;;;;;;43.67;13.35;;;2.80;99.90;;;;;;5117246;27;20051;-78
2022/12/03 00:56:42;;;;;;;43.15;12.88;;;2.80;99.90;;;;;;5117321;27;20055;-77
2022/12/03 00:59:08;;;;;;;58.30;17.45;;;2.80;99.90;;;;;;5136322;27;20095;-77
2022/12/03 01:01:34;;;;;;;44.40;12.93;;;2.80;99.90;;;;;;5117538;27;20046;-75
2022/12/03 01:03:59;;;;;;;44.13;13.73;;;2.80;99.90;;;;;;5135899;27;20054;-77
2022/12/03 01:06:25;;;;;;;45.53;13.43;;;2.80;99.90;;;;;;5135595;27;20047;-76
2022/12/03 01:08:51;;;;;;;40.95;13.13;;;2.80;99.90;;;;;;5101171;27;20601;-79
2022/12/03 01:14:01;;;;;;;46.47;15.15;;;2.80;99.90;;;;;;5136066;27;20054;-76
2022/12/03 01:16:26;;;;;;;42.55;12.82;;;2.90;99.90;;;;;;5117689;27;20355;-76
2022/12/03 01:18:52;;;;;;;42.10;12.07;;;2.90;99.90;;;;;;5135668;27;20043;-76
2022/12/03 01:21:18;;;;;;;43.05;12.73;;;2.90;99.90;;;;;;5135502;27;20042;-77
2022/12/03 01:23:44;;;;;;;37.50;12.35;;;2.90;99.90;;;;;;5118219;27;20043;-77
2022/12/03 01:26:10;;;;;;;42.92;13.02;;;3.00;99.90;;;;;;5135650;27;20401;-75
2022/12/03 01:28:35;;;;;;;45.88;14.30;;;3.00;99.90;;;;;;5136900;27;20050;-74
2022/12/03 01:33:45;;;;;;;42.00;12.70;;;3.10;99.90;;;;;;5152378;27;20047;-78
2022/12/03 01:36:11;;;;;;;40.92;12.65;;;3.10;99.90;;;;;;5150724;27;20058;-78
2022/12/03 01:38:37;;;;;;;46.08;13.00;;;3.10;99.90;;;;;;5144648;27;20104;-76
2022/12/03 01:41:03;;;;;;;43.10;12.57;;;3.20;99.90;;;;;;5143146;27;20084;-75
2022/12/03 01:43:29;;;;;;;41.63;12.27;;;3.20;99.90;;;;;;5141843;27;20123;-77
2022/12/03 01:45:54;;;;;;;40.97;11.98;;;3.20;99.90;;;;;;5120806;27;20092;-77
2022/12/03 01:48:21;;;;;;;44.75;13.70;;;3.20;99.90;;;;;;5118302;27;20058;-76
2022/12/03 01:50:46;;;;;;;45.22;13.15;;;3.20;99.90;;;;;;5116584;27;20103;-75
2022/12/03 01:53:17;;;;;;;48.83;13.13;;;3.20;99.90;;;;;;5116576;27;20043;-77
2022/12/03 01:55:43;;;;;;;44.33;13.05;;;3.20;99.90;;;;;;5116000;27;20472;-77
2022/12/03 01:58:12;;;;;;;45.17;13.50;;;3.20;99.90;;;;;;5135225;27;20081;-76
2022/12/03 02:00:39;;;;;;;49.35;14.45;;;3.20;99.90;;;;;;5134687;27;20089;-77
2022/12/03 02:03:15;;;;;;;39.78;11.52;;;3.10;99.90;;;;;;5099345;27;20398;-77
2022/12/03 02:05:41;;;;;;;49.00;14.40;;;3.20;99.90;;;;;;5134349;27;20493;-77
2022/12/03 02:08:29;;;;;;;44.85;13.00;;;3.20;99.90;;;;;;5134567;27;20043;-78
2022/12/03 02:10:58;;;;;;;50.75;14.55;;;3.20;99.90;;;;;;5115797;27;20087;-77
2022/12/03 02:13:24;;;;;;;46.80;14.15;;;3.20;99.90;;;;;;5134012;27;20562;-78
2022/12/03 02:15:50;;;;;;;50.63;14.95;;;3.20;99.90;;;;;;5116903;27;20122;-75
2022/12/03 02:18:16;;;;;;;42.20;13.05;;;3.30;99.90;;;;;;5115768;27;20081;-75
2022/12/03 02:21:01;;;;;;;44.50;14.00;;;3.30;99.90;;;;;;5117043;27;20052;-81
2022/12/03 02:23:30;;;;;;;46.72;13.15;;;3.30;99.90;;;;;;5108941;27;20089;-81
2022/12/03 02:25:55;;;;;;;44.13;13.57;;;3.30;99.90;;;;;;5105067;27;20149;-82
2022/12/03 02:28:21;;;;;;;42.80;14.13;;;3.30;99.90;;;;;;5103613;27;20058;-81
2022/12/03 02:30:47;;;;;;;49.10;14.75;;;3.30;99.90;;;;;;5105154;27;20043;-82
2022/12/03 02:33:13;;;;;;;45.15;14.27;;;3.30;99.90;;;;;;5109076;27;20031;-79
2022/12/03 02:35:39;;;;;;;45.50;14.95;;;3.30;99.90;;;;;;5126187;27;20051;-84
2022/12/03 02:38:16;;;;;;;40.92;13.82;;;3.30;99.90;;;;;;5124508;27;20086;-86
2022/12/03 02:40:44;;;;;;;41.42;12.75;;;3.30;99.90;;;;;;5123732;27;20054;-84
2022/12/03 02:43:13;;;;;;;45.35;13.10;;;3.30;99.90;;;;;;5139943;27;20376;-82
2022/12/03 02:45:43;;;;;;;39.10;12.32;;;3.30;99.90;;;;;;5142659;27;20380;-83
2022/12/03 02:48:14;;;;;;;41.08;13.13;;;3.40;99.90;;;;;;5102387;27;20054;-84
2022/12/03 02:50:43;;;;;;;39.53;14.30;;;3.40;99.90;;;;;;5102797;27;20036;-80
2022/12/03 02:53:15;;;;;;;36.45;11.43;;;3.40;99.90;;;;;;5138041;27;20047;-80
2022/12/03 02:55:41;;;;;;;40.85;13.73;;;3.40;99.90;;;;;;5123559;27;20058;-83
2022/12/03 02:58:08;;;;;;;40.72;13.35;;;3.40;99.90;;;;;;5142475;27;20490;-80
2022/12/03 03:00:34;;;;;;;37.83;13.35;;;3.40;99.90;;;;;;5142908;27;20035;-81
2022/12/03 03:03:03;;;;;;;41.17;12.60;;;3.40;99.90;;;;;;5107765;27;20047;-84
2022/12/03 03:05:29;;;;;;;37.30;13.02;;;3.50;99.90;;;;;;5139904;27;20057;-78
2022/12/03 03:07:57;;;;;;;42.28;13.77;;;3.40;99.90;;;;;;5140246;27;20043;-82
2022/12/03 03:10:23;;;;;;;42.35;13.43;;;3.40;99.90;;;;;;5104360;27;20051;-82
2022/12/03 03:12:51;;;;;;;36.58;12.75;;;3.30;99.90;;;;;;5118575;27;20054;-82
2022/12/03 03:15:17;;;;;;;38.65;12.23;;;3.20;99.90;;;;;;5137070;27;20050;-82
2022/12/03 03:17:44;;;;;;;38.38;12.45;;;3.20;99.90;;;;;;5119157;27;20043;-81
2022/12/03 03:20:11;;;;;;;42.05;13.52;;;3.10;99.90;;;;;;5119486;27;20058;-85
2022/12/03 03:22:39;;;;;;;41.00;13.18;;;3.10;99.90;;;;;;5139264;27;20039;-83
2022/12/03 03:25:09;;;;;;;38.95;12.50;;;3.10;99.90;;;;;;5138229;27;20118;-83
2022/12/03 03:27:35;;;;;;;39.65;12.60;;;3.10;99.90;;;;;;5122528;28;20102;-83
2022/12/03 03:30:02;;;;;;;37.53;12.02;;;3.00;99.90;;;;;;5139428;28;20043;-82
2022/12/03 03:32:29;;;;;;;41.40;12.95;;;3.00;99.90;;;;;;5118835;28;20039;-81
2022/12/03 03:34:55;;;;;;;36.83;11.85;;;3.00;99.90;;;;;;5138475;28;20047;-79
2022/12/03 03:37:23;;;;;;;35.97;12.48;;;3.10;99.90;;;;;;5090554;28;20051;-81
2022/12/03 03:39:49;;;;;;;38.03;12.13;;;3.10;99.90;;;;;;5111596;28;20047;-82
2022/12/03 03:42:15;;;;;;;36.50;12.60;;;3.10;99.90;;;;;;5095049;28;20079;-82
2022/12/03 03:44:40;;;;;;;40.33;12.30;;;3.10;99.90;;;;;;5125129;28;20043;-79
2022/12/03 03:47:06;;;;;;;39.03;12.35;;;3.10;99.90;;;;;;5125571;28;20084;-80
2022/12/03 03:49:32;;;;;;;38.58;12.48;;;3.10;99.90;;;;;;5149387;28;20043;-77
2022/12/03 03:51:58;;;;;;;40.42;12.82;;;3.10;99.90;;;;;;5150696;28;20082;-83
2022/12/03 03:54:24;;;;;;;38.45;12.85;;;3.10;99.90;;;;;;5119997;28;20047;-78
2022/12/03 03:56:51;;;;;;;36.08;11.30;;;3.10;99.90;;;;;;5154116;27;20056;-80
2022/12/03 03:59:16;;;;;;;39.58;12.52;;;3.00;99.90;;;;;;5130404;28;20143;-78
2022/12/03 04:01:45;;;;;;;39.17;12.93;;;3.20;99.90;;;;;;5127763;28;20043;-80
2022/12/03 04:04:19;;;;;;;40.22;12.55;;;3.10;99.90;;;;;;5113634;28;20046;-79
2022/12/03 04:06:46;;;;;;;41.00;13.77;;;3.10;99.90;;;;;;5107758;28;20073;-81
2022/12/03 04:09:12;;;;;;;42.08;13.20;;;3.10;99.90;;;;;;5123742;28;20043;-81
2022/12/03 04:14:22;;;;;;;36.72;12.90;;;3.00;99.90;;;;;;5108424;28;20107;-80
2022/12/03 04:16:48;;;;;;;40.05;14.30;;;3.00;99.90;;;;;;5105724;27;20043;-79
2022/12/03 04:19:13;;;;;;;39.50;13.63;;;3.00;99.90;;;;;;5128345;27;20098;-84
2022/12/03 04:24:23;;;;;;;41.78;13.60;;;3.00;99.90;;;;;;5113507;27;20051;-84
2022/12/03 04:29:33;;;;;;;41.10;13.70;;;3.00;99.90;;;;;;5143937;27;20054;-83
2022/12/03 04:37:28;;;;;;;39.97;13.40;;;3.00;99.90;;;;;;5126502;27;20360;-82
2022/12/03 04:39:53;;;;;;;48.78;21.27;;;3.00;99.90;;;;;;5110159;27;20051;-81
2022/12/03 04:42:19;;;;;;;44.30;13.80;;;3.00;99.90;;;;;;5145262;27;20047;-79
2022/12/03 04:44:45;;;;;;;44.70;14.25;;;3.00;99.90;;;;;;5126997;27;20462;-80
2022/12/03 04:47:20;;;;;;;39.97;14.77;;;3.00;99.90;;;;;;5126776;27;20121;-84
2022/12/03 04:49:50;;;;;;;40.65;13.93;;;3.00;99.90;;;;;;5123702;27;20043;-84
2022/12/03 04:52:18;;;;;;;40.25;12.90;;;3.00;99.90;;;;;;5142856;27;20039;-80
2022/12/03 04:54:44;;;;;;;40.53;12.63;;;3.00;99.90;;;;;;5124957;27;20103;-80
2022/12/03 04:57:11;;;;;;;38.40;12.87;;;3.00;99.90;;;;;;5124805;27;20364;-84
2022/12/03 04:59:37;;;;;;;44.53;14.10;;;3.00;99.90;;;;;;5142475;27;20047;-80
2022/12/03 05:02:05;;;;;;;35.22;12.95;;;3.00;99.90;;;;;;5106775;27;20047;-81
2022/12/03 05:04:31;;;;;;;40.20;12.48;;;3.00;99.90;;;;;;5140533;27;20134;-81
2022/12/03 05:06:57;;;;;;;42.25;14.15;;;3.00;99.90;;;;;;5140542;27;20088;-81
2022/12/03 05:09:23;;;;;;;44.95;13.95;;;3.00;99.90;;;;;;5122081;27;20054;-80
2022/12/03 05:11:49;;;;;;;39.33;13.05;;;2.90;99.90;;;;;;5145201;27;20043;-82
2022/12/03 05:14:14;;;;;;;41.92;13.93;;;2.80;99.90;;;;;;5128837;27;20047;-82
2022/12/03 05:16:40;;;;;;;43.92;14.20;;;2.90;99.90;;;;;;5107723;27;20035;-85
2022/12/03 05:19:07;;;;;;;37.50;12.90;;;2.80;99.90;;;;;;5124136;27;20047;-81
2022/12/03 05:21:33;;;;;;;41.88;13.02;;;2.80;99.90;;;;;;5106950;27;20134;-82
2022/12/03 05:23:59;;;;;;;39.72;12.98;;;2.80;99.90;;;;;;5144992;27;20054;-80
2022/12/03 05:26:25;;;;;;;40.28;13.65;;;2.80;99.90;;;;;;5123765;27;20047;-84
2022/12/03 05:28:50;;;;;;;39.53;13.23;;;2.80;99.90;;;;;;5106313;27;20076;-82
2022/12/03 05:31:16;;;;;;;42.15;13.57;;;2.80;99.90;;;;;;5106337;27;20039;-83
2022/12/03 05:33:45;;;;;;;45.15;14.10;;;2.80;99.90;;;;;;5124568;27;20043;-84
2022/12/03 05:36:11;;;;;;;44.63;13.75;;;2.80;99.90;;;;;;5129019;27;20178;-80
2022/12/03 05:38:36;;;;;;;46.90;14.57;;;2.80;99.90;;;;;;5099372;27;20067;-82
2022/12/03 05:42:52;;;;;;;39.30;12.52;;;2.80;99.90;;;;;;5101273;27;20043;-82
2022/12/03 05:43:49;;;;;;;;;;;2.80;99.90;;;;;;5130191;27;20112;-79
2022/12/03 05:46:15;;;;;;;43.15;12.93;;;2.80;99.90;;;;;;5147369;27;19919;-80
2022/12/03 05:48:41;;;;;;;46.70;14.23;;;2.80;99.90;;;;;;5123984;27;20416;-81
2022/12/03 05:51:07;;;;;;;38.53;14.30;;;2.80;99.90;;;;;;5145701;27;20043;-82
2022/12/03 05:53:32;;;;;;;46.00;14.38;;;2.80;99.90;;;;;;5145788;27;20411;-82
2022/12/03 05:55:58;;;;;;;42.90;13.60;;;2.80;99.90;;;;;;5109829;27;20053;-82
2022/12/03 05:58:24;;;;;;;41.17;14.25;;;2.80;99.90;;;;;;5150397;27;20054;-82
2022/12/03 06:00:50;;;;;;;46.28;13.90;;;2.80;99.90;;;;;;5116161;27;20043;-81
2022/12/03 06:03:19;;;;;;;46.95;17.75;;;2.90;99.90;;;;;;5133042;27;20063;-80
2022/12/03 06:05:45;;;;;;;47.08;14.73;;;2.80;99.90;;;;;;5148214;27;20124;-81
2022/12/03 06:08:12;;;;;;;44.17;14.30;;;2.80;99.90;;;;;;5142872;27;20046;-79
2022/12/03 06:10:38;;;;;;;44.08;14.27;;;2.80;99.90;;;;;;5135178;27;20072;-80
2022/12/03 06:13:03;;;;;;;46.15;15.10;;;2.80;99.90;;;;;;5146204;27;20043;-82
2022/12/03 06:15:29;;;;;;;46.80;14.40;;;2.80;99.90;;;;;;5141023;27;20047;-79
2022/12/03 06:17:55;;;;;;;45.40;13.93;;;2.80;99.90;;;;;;5117757;27;20065;-83
2022/12/03 06:20:21;;;;;;;43.67;14.38;;;2.80;99.90;;;;;;5117831;27;20126;-82
2022/12/03 06:22:47;;;;;;;43.78;14.98;;;2.80;99.90;;;;;;5117766;27;20082;-82
2022/12/03 06:25:13;;;;;;;44.70;14.93;;;2.80;99.90;;;;;;5136304;27;20043;-82
2022/12/03 06:27:39;;;;;;;37.90;13.68;;;2.80;99.90;;;;;;5117185;27;20280;-83
2022/12/03 06:30:07;;;;;;;44.22;14.88;;;2.80;99.90;;;;;;5100418;27;20488;-84
2022/12/03 06:32:33;;;;;;;46.80;15.85;;;2.80;99.90;;;;;;5136193;27;20039;-84
2022/12/03 06:34:59;;;;;;;46.95;14.70;;;2.80;99.90;;;;;;5120103;27;20584;-82
2022/12/03 06:37:25;;;;;;;53.38;20.45;;;2.80;99.90;;;;;;5101280;27;20051;-80
2022/12/03 06:39:53;;;;;;;46.70;15.30;;;2.80;99.90;;;;;;5067431;27;20386;-84
2022/12/03 06:42:19;;;;;;;49.47;16.05;;;2.80;99.90;;;;;;5125625;27;20375;-81
2022/12/03 06:44:45;;;;;;;48.83;15.95;;;2.80;99.90;;;;;;5115814;27;20038;-81
2022/12/03 06:47:10;;;;;;;45.00;14.35;;;2.80;99.90;;;;;;5130507;27;20050;-81
2022/12/03 06:49:36;;;;;;;53.70;17.80;;;2.80;99.90;;;;;;5120329;27;20051;-84
2022/12/03 06:52:02;;;;;;;46.50;15.63;;;2.80;99.90;;;;;;5102036;27;20039;-82
2022/12/03 06:54:28;;;;;;;58.15;17.48;;;2.80;99.90;;;;;;5102002;27;20180;-79
2022/12/03 06:56:54;;;;;;;53.80;18.10;;;2.80;99.90;;;;;;5117129;27;20078;-80
2022/12/03 06:59:20;;;;;;;52.55;16.65;;;2.80;99.90;;;;;;5100719;27;20039;-83
2022/12/03 07:01:54;;;;;;;53.15;17.65;;;2.80;99.90;;;;;;5118648;27;20187;-82
2022/12/03 07:04:20;;;;;;;55.67;16.65;;;2.70;99.90;;;;;;5117721;27;20043;-87
2022/12/03 07:06:46;;;;;;;51.28;15.93;;;2.70;99.90;;;;;;5099887;27;20058;-84
2022/12/03 07:09:11;;;;;;;53.30;16.52;;;2.60;99.90;;;;;;5116782;27;20043;-81
2022/12/03 07:11:40;;;;;;;48.88;15.18;;;2.50;99.90;;;;;;5100040;28;20140;-79
2022/12/03 07:14:07;;;;;;;48.72;14.75;;;2.50;99.90;;;;;;5135601;27;20158;-83
2022/12/03 07:16:34;;;;;;;54.88;16.10;;;2.50;99.90;;;;;;5117203;27;20048;-82
2022/12/03 07:19:04;;;;;;;51.60;15.57;;;2.50;99.90;;;;;;5099762;27;20087;-81
2022/12/03 07:21:31;;;;;;;46.67;14.55;;;2.40;99.90;;;;;;5100164;28;20047;-83
2022/12/03 07:23:56;;;;;;;43.67;14.13;;;2.40;99.90;;;;;;5117122;27;20058;-78
2022/12/03 07:26:23;;;;;;;49.97;15.75;;;2.40;99.90;;;;;;5134507;27;20047;-83
2022/12/03 07:28:52;;;;;;;48.45;15.57;;;2.40;99.90;;;;;;5134214;28;20047;-83
2022/12/03 07:31:17;;;;;;;46.20;15.38;;;2.40;99.90;;;;;;5100212;28;20050;-81
2022/12/03 07:33:43;;;;;;;49.53;16.33;;;2.30;99.90;;;;;;5117031;28;20460;-84
2022/12/03 07:36:09;;;;;;;50.45;15.60;;;2.30;99.90;;;;;;5134484;28;20115;-82
2022/12/03 07:38:35;;;;;;;48.08;15.50;;;2.30;99.90;;;;;;5116934;28;20139;-81
2022/12/03 07:41:01;;;;;;;51.70;15.73;;;2.30;99.90;;;;;;5100703;28;20058;-81
2022/12/03 07:43:26;;;;;;;54.03;16.40;;;2.30;99.90;;;;;;5135009;28;20398;-84
2022/12/03 07:45:52;;;;;;;48.08;14.50;;;2.40;99.90;;;;;;5116585;28;20047;-79
2022/12/03 07:48:18;;;;;;;45.63;14.48;;;2.30;99.90;;;;;;5117701;28;20074;-78
2022/12/03 07:50:44;;;;;;;53.28;16.33;;;2.30;99.90;;;;;;5101123;27;20039;-82
2022/12/03 07:53:10;;;;;;;53.50;16.23;;;2.40;99.90;;;;;;5104388;27;20129;-84
2022/12/03 07:55:35;;;;;;;53.35;14.25;;;2.30;99.90;;;;;;5104850;27;20130;-80
2022/12/03 07:58:01;;;;;;;51.47;15.60;;;2.30;99.90;;;;;;5104438;27;20138;-80
2022/12/03 08:00:27;;;;;;;54.55;16.02;;;2.30;99.90;;;;;;5121041;27;20042;-80
2022/12/03 08:02:53;;;;;;;53.08;15.82;;;2.30;99.90;;;;;;5105095;27;20047;-81
2022/12/03 08:05:18;;;;;;;51.58;15.30;;;2.30;99.90;;;;;;5121441;27;20090;-81
2022/12/03 08:07:44;;;;;;;55.72;14.27;;;2.20;99.90;;;;;;5141301;27;20039;-79
2022/12/03 08:10:10;;;;;;;49.17;13.85;;;2.30;99.90;;;;;;5122461;27;20111;-83
2022/12/03 08:12:40;;;;;;;51.65;15.20;;;2.20;99.90;;;;;;5121970;27;20047;-80
2022/12/03 08:15:13;;;;;;;53.00;16.15;;;2.20;99.90;;;;;;5121734;27;20050;-82
2022/12/03 08:17:39;;;;;;;47.65;15.20;;;2.20;99.90;;;;;;5138818;27;20511;-83
2022/12/03 08:20:17;;;;;;;50.08;15.30;;;2.20;99.90;;;;;;5139915;27;20043;-79
2022/12/03 08:22:45;;;;;;;54.25;15.25;;;2.20;99.90;;;;;;5104376;27;20137;-83
2022/12/03 08:25:23;;;;;;;48.83;15.13;;;2.10;99.90;;;;;;5139132;27;20448;-80
2022/12/03 08:27:50;;;;;;;55.00;16.58;;;2.20;99.90;;;;;;5141333;27;20058;-81
2022/12/03 08:30:17;;;;;;;46.63;13.43;;;2.20;99.90;;;;;;5121125;27;20058;-81
2022/12/03 08:32:43;;;;;;;48.03;15.50;;;2.20;99.90;;;;;;5087511;27;20046;-83
2022/12/03 08:35:16;;;;;;;49.40;14.50;;;2.20;99.90;;;;;;5120356;27;20402;-81
2022/12/03 08:37:42;;;;;;;51.33;15.20;;;2.30;99.90;;;;;;5121709;27;20051;-82
2022/12/03 08:40:31;;;;;;;54.10;16.27;;;2.20;99.90;;;;;;5143040;27;20050;-80
2022/12/03 08:42:56;;;;;;;52.78;17.27;;;2.20;99.90;;;;;;5124704;27;20086;-80
2022/12/03 08:45:31;;;;;;;43.95;14.18;;;2.10;99.90;;;;;;5108098;27;20417;-82
2022/12/03 08:47:59;;;;;;;51.45;16.67;;;2.20;99.90;;;;;;5105587;27;20043;-80
2022/12/03 08:50:34;;;;;;;56.78;17.38;;;2.10;99.90;;;;;;5139233;27;20059;-83
2022/12/03 08:53:12;;;;;;;56.25;17.73;;;2.20;99.90;;;;;;5104872;27;20047;-85
2022/12/03 08:55:45;;;;;;;50.53;15.73;;;2.20;99.90;;;;;;5139222;27;20043;-81
2022/12/03 08:58:27;;;;;;;49.83;15.27;;;2.10;99.90;;;;;;5104186;27;20050;-81
2022/12/03 09:01:04;;;;;;;45.13;12.35;;;2.10;99.90;;;;;;5139404;27;20054;-81
2022/12/03 09:03:31;;;;;;;49.90;15.13;;;2.10;99.90;;;;;;5138234;27;20451;-81
2022/12/03 09:05:57;;;;;;;53.58;15.73;;;2.20;99.90;;;;;;5120848;27;20043;-80
2022/12/03 09:08:23;;;;;;;50.28;16.58;;;2.20;99.90;;;;;;5138106;27;20054;-85
2022/12/03 09:10:51;;;;;;;46.72;16.02;;;2.10;99.90;;;;;;5105273;27;20050;-84
2022/12/03 09:13:17;;;;;;;47.47;14.77;;;2.10;99.90;;;;;;5122461;27;20047;-82
2022/12/03 09:15:42;;;;;;;50.78;14.95;;;2.20;99.90;;;;;;5138708;27;20129;-82
2022/12/03 09:18:08;;;;;;;46.85;14.50;;;2.10;99.90;;;;;;5086060;27;20054;-83
2022/12/03 09:20:34;;;;;;;48.55;15.38;;;2.10;99.90;;;;;;5138693;27;20313;-84
2022/12/03 09:23:00;;;;;;;54.97;15.57;;;2.10;99.90;;;;;;5140106;27;20053;-83
2022/12/03 09:25:26;;;;;;;39.50;11.93;;;2.20;99.90;;;;;;5139395;27;20494;-79
2022/12/03 09:27:51;;;;;;;46.45;13.25;;;2.20;99.90;;;;;;5121468;27;20043;-77
2022/12/03 09:30:17;;;;;;;51.42;16.08;;;2.20;99.90;;;;;;5124834;27;20060;-82
2022/12/03 09:32:43;;;;;;;41.58;12.40;;;2.30;99.90;;;;;;5146537;27;20039;-80
2022/12/03 09:35:09;;;;;;;50.78;16.15;;;2.30;99.90;;;;;;5135587;27;20103;-81
2022/12/03 09:37:37;;;;;;;47.95;15.05;;;2.20;99.90;;;;;;5146120;27;20042;-80
2022/12/03 09:40:05;;;;;;;46.25;14.15;;;2.30;99.90;;;;;;5140766;27;20043;-83
2022/12/03 09:42:30;;;;;;;48.60;14.52;;;2.30;99.90;;;;;;5105117;27;20104;-80
2022/12/03 09:44:59;;;;;;;48.67;14.43;;;2.30;99.90;;;;;;5122635;27;20074;-81
2022/12/03 09:47:24;;;;;;;51.03;15.32;;;2.40;99.90;;;;;;5122951;27;20047;-83
2022/12/03 09:49:51;;;;;;;49.70;14.90;;;2.40;99.90;;;;;;5142343;27;20114;-84
2022/12/03 09:52:26;;;;;;;50.93;15.27;;;2.40;99.90;;;;;;5108831;27;20031;-80
2022/12/03 09:54:52;;;;;;;45.88;13.35;;;2.40;99.90;;;;;;5128739;27;20439;-79
2022/12/03 09:57:18;;;;;;;47.92;15.05;;;2.40;99.90;;;;;;5130252;27;20138;-81
2022/12/03 09:59:44;;;;;;;51.13;14.35;;;2.40;99.90;;;;;;5111050;27;20066;-81
2022/12/03 10:02:19;;;;;;;48.40;12.32;;;2.40;99.90;;;;;;5126217;27;20297;-79
2022/12/03 10:04:46;;;;;;;46.13;13.52;;;2.40;99.90;;;;;;5124300;27;20078;-82
2022/12/03 10:07:12;;;;;;;48.40;14.02;;;2.40;99.90;;;;;;5105983;27;20047;-79
2022/12/03 10:09:38;;;;;;;42.58;13.05;;;2.40;99.90;;;;;;5106211;27;20115;-78
2022/12/03 10:12:04;;;;;;;46.30;15.70;;;2.40;99.90;;;;;;5105568;27;20096;-83
2022/12/03 10:14:31;;;;;;;38.13;11.63;;;2.40;99.90;;;;;;5122202;27;20035;-80
2022/12/03 10:16:57;;;;;;;51.40;15.75;;;2.40;99.90;;;;;;5140551;27;20050;-78
2022/12/03 10:19:30;;;;;;;51.25;15.23;;;2.40;99.90;;;;;;5140119;27;20429;-80
2022/12/03 10:21:56;;;;;;;43.25;12.32;;;2.40;99.90;;;;;;5141351;27;20047;-79
2022/12/03 10:24:36;;;;;;;48.15;15.02;;;2.40;99.90;;;;;;5143413;27;20111;-85
2022/12/03 10:27:28;;;;;;;55.78;14.38;;;2.40;99.90;;;;;;5108948;27;20134;-84
2022/12/03 10:29:56;;;;;;;48.92;15.52;;;2.40;99.90;;;;;;5107404;27;20086;-83
2022/12/03 10:32:46;;;;;;;43.83;13.38;;;2.40;99.90;;;;;;5123134;27;20035;-83
2022/12/03 10:35:35;;;;;;;52.25;15.07;;;2.50;99.90;;;;;;5087309;27;20494;-86
2022/12/03 10:38:28;;;;;;;51.45;15.25;;;2.50;99.90;;;;;;5104280;27;20103;-80
2022/12/03 10:40:55;;;;;;;50.20;16.15;;;2.50;99.90;;;;;;5137652;27;20039;-80
2022/12/03 10:43:25;;;;;;;53.85;15.80;;;2.40;99.90;;;;;;5138532;27;20153;-82
2022/12/03 10:46:00;;;;;;;44.85;14.23;;;2.50;99.90;;;;;;5139154;27;20054;-82
2022/12/03 10:48:26;;;;;;;51.92;15.25;;;2.50;99.90;;;;;;5122245;27;20043;-80
2022/12/03 10:51:21;;;;;;;57.50;17.77;;;2.50;99.90;;;;;;5104413;27;20038;-82
2022/12/03 10:54:23;;;;;;;54.55;16.00;;;2.50;99.90;;;;;;5066277;28;20126;-81
2022/12/03 10:56:58;;;;;;;58.50;17.48;;;2.50;99.90;;;;;;5062612;28;20060;-82
2022/12/03 10:59:30;;;;;;;49.13;15.93;;;2.50;99.90;;;;;;5092601;27;20521;-82
2022/12/03 11:01:56;;;;;;;57.40;17.50;;;2.50;99.90;;;;;;5124956;27;20079;-81
2022/12/03 11:04:32;;;;;;;58.75;18.63;;;2.50;99.90;;;;;;5127282;27;20047;-81
2022/12/03 11:07:05;;;;;;;53.47;15.95;;;2.50;99.90;;;;;;5135393;27;20475;-84
2022/12/03 11:09:32;;;;;;;56.50;16.23;;;2.50;99.90;;;;;;5109844;27;20043;-80
2022/12/03 11:12:17;;;;;;;53.42;16.45;;;2.50;99.90;;;;;;5110324;27;20103;-82
2022/12/03 11:14:52;;;;;;;49.05;15.45;;;2.60;99.90;;;;;;5144903;27;20117;-76
2022/12/03 11:17:43;;;;;;;44.80;14.13;;;2.60;99.90;;;;;;5143591;27;20043;-82
2022/12/03 11:20:32;;;;;;;47.88;14.77;;;2.60;99.90;;;;;;5127293;27;20054;-81
2022/12/03 11:22:58;;;;;;;48.97;14.30;;;2.60;99.90;;;;;;5143858;27;20055;-81
2022/12/03 11:25:27;;;;;;;53.08;16.02;;;2.70;99.90;;;;;;5091568;28;20043;-84
2022/12/03 11:28:13;;;;;;;45.63;13.07;;;2.70;99.90;;;;;;5140834;27;20048;-79
2022/12/03 11:30:49;;;;;;;48.97;15.57;;;2.70;99.90;;;;;;5123628;28;20393;-85
2022/12/03 11:33:37;;;;;;;58.60;18.13;;;2.70;99.90;;;;;;5141876;28;20057;-84
2022/12/03 11:36:02;;;;;;;49.97;15.13;;;2.70;99.90;;;;;;5124503;28;20433;-83
2022/12/03 11:38:44;;;;;;;45.67;14.60;;;2.70;99.90;;;;;;5123940;28;20114;-81
2022/12/03 11:41:14;;;;;;;54.17;17.77;;;2.80;99.90;;;;;;5143799;28;20071;-80
2022/12/03 11:43:55;;;;;;;51.60;16.20;;;2.70;99.90;;;;;;5124271;28;20043;-82
2022/12/03 11:46:25;;;;;;;54.83;17.30;;;2.70;99.90;;;;;;5124326;28;20566;-83
2022/12/03 11:48:55;;;;;;;49.47;16.38;;;2.70;99.90;;;;;;5144288;28;20039;-84
2022/12/03 11:51:23;;;;;;;48.70;16.30;;;2.70;99.90;;;;;;5144370;28;20071;-85
2022/12/03 11:53:52;;;;;;;52.55;16.10;;;2.70;99.90;;;;;;5124521;28;20047;-85
2022/12/03 11:56:21;;;;;;;51.40;15.00;;;2.70;99.90;;;;;;5119727;28;20491;-82
2022/12/03 11:58:47;;;;;;;52.10;16.38;;;2.70;99.90;;;;;;5121857;28;20051;-82
2022/12/03 12:01:14;;;;;;;45.08;14.75;;;2.70;99.90;;;;;;5106716;28;20403;-83
2022/12/03 12:03:42;;;;;;;53.75;15.75;;;2.80;99.90;;;;;;5120262;28;20099;-82
2022/12/03 12:06:09;;;;;;;53.03;16.85;;;2.80;99.90;;;;;;5121424;28;20054;-81
2022/12/03 12:08:56;;;;;;;49.97;14.43;;;2.80;99.90;;;;;;5144626;28;20102;-83
2022/12/03 12:11:35;;;;;;;53.80;16.67;;;2.80;99.90;;;;;;5129400;28;20112;-82
2022/12/03 12:14:03;;;;;;;47.85;13.88;;;2.80;99.90;;;;;;5149536;28;20051;-81
2022/12/03 12:16:36;;;;;;;44.95;15.55;;;2.80;99.90;;;;;;5150545;28;20044;-81
2022/12/03 12:19:41;;;;;;;44.10;14.55;;;2.90;99.90;;;;;;5130699;28;20078;-81
2022/12/03 12:22:25;;;;;;;48.97;16.20;;;2.80;99.90;;;;;;5115775;28;20050;-78
2022/12/03 12:25:28;;;;;;;46.83;15.43;;;2.80;99.90;;;;;;5154157;28;20046;-79
2022/12/03 12:27:54;;;;;;;40.95;13.20;;;2.80;99.90;;;;;;5155590;28;20040;-80
2022/12/03 12:30:24;;;;;;;43.65;14.05;;;2.70;99.90;;;;;;5155738;28;20043;-81
2022/12/03 12:33:00;;;;;;;50.15;14.75;;;2.70;99.90;;;;;;5150791;28;20074;-80
2022/12/03 12:35:31;;;;;;;43.83;14.95;;;2.70;99.90;;;;;;5151261;28;20051;-80
2022/12/03 12:38:06;;;;;;;49.08;15.30;;;2.60;99.90;;;;;;5136009;27;20043;-82
2022/12/03 12:40:34;;;;;;;46.65;13.38;;;2.50;99.90;;;;;;5137497;27;20042;-81
2022/12/03 12:43:03;;;;;;;52.88;15.27;;;2.50;99.90;;;;;;5119882;27;20051;-82
2022/12/03 12:45:40;;;;;;;48.65;15.70;;;2.50;99.90;;;;;;5121349;27;20055;-82
2022/12/03 12:48:11;;;;;;;50.85;15.50;;;2.50;99.90;;;;;;5137849;27;20054;-83
2022/12/03 12:50:38;;;;;;;45.13;13.95;;;2.60;99.90;;;;;;5154659;27;20038;-84
2022/12/03 12:53:10;;;;;;;52.40;16.33;;;2.50;99.90;;;;;;5137080;27;20023;-83
2022/12/03 12:55:39;;;;;;;43.42;14.50;;;2.50;99.90;;;;;;5155068;27;20353;-80
2022/12/03 12:58:15;;;;;;;51.05;15.65;;;2.50;99.90;;;;;;5119868;27;20061;-80
2022/12/03 13:00:41;;;;;;;49.25;15.23;;;2.40;99.90;;;;;;5135993;27;20047;-80
2022/12/03 13:03:07;;;;;;;53.72;16.02;;;2.50;99.90;;;;;;5118366;27;20050;-84
2022/12/03 13:05:39;;;;;;;44.30;15.25;;;2.40;99.90;;;;;;5152023;27;20043;-81